createdAt,value
2018-05-12T00:03:24.409Z,18.27
2018-05-12T00:09:19.379Z,16.78
2018-05-12T00:15:14.384Z,14.82
2018-05-12T00:21:09.365Z,18.59
2018-05-12T00:27:04.362Z,13.16
2018-05-12T00:32:59.407Z,17.82
2018-05-12T00:38:54.393Z,18.16
2018-05-12T00:44:49.394Z,23.4
2018-05-12T00:50:44.477Z,18.9
2018-05-12T00:56:39.414Z,16.08
2018-05-12T01:02:34.423Z,17.48
2018-05-12T01:08:29.442Z,17.27
2018-05-12T01:14:24.426Z,16.09
2018-05-12T01:20:19.473Z,21.69
2018-05-12T01:26:14.434Z,21.37
2018-05-12T01:32:09.414Z,19.76
2018-05-12T01:38:04.446Z,23.43
2018-05-12T01:43:59.427Z,19.99
2018-05-12T01:49:54.431Z,18.34
2018-05-12T01:55:49.448Z,23.63
2018-05-12T02:01:44.496Z,23.28
2018-05-12T02:07:39.405Z,22.12
2018-05-12T02:13:34.458Z,18.79
2018-05-12T02:19:29.450Z,16.22
2018-05-12T02:25:24.513Z,16.45
2018-05-12T02:31:19.506Z,24.61
2018-05-12T02:37:14.470Z,21.79
2018-05-12T02:43:09.481Z,21.34
2018-05-12T02:49:04.447Z,27.44
2018-05-12T02:54:59.507Z,25.94
2018-05-12T03:00:54.503Z,22.71
2018-05-12T03:06:49.472Z,25.95
2018-05-12T03:12:44.450Z,26.47
2018-05-12T03:18:39.466Z,29.65
2018-05-12T03:24:34.520Z,27.32
2018-05-12T03:30:29.542Z,27.08
2018-05-12T03:36:24.484Z,24.69
2018-05-12T03:42:19.521Z,30.03
2018-05-12T03:48:14.504Z,27.31
2018-05-12T03:54:09.534Z,26.53
2018-05-12T04:00:04.640Z,22.2
2018-05-12T04:05:59.519Z,27.79
2018-05-12T04:11:54.490Z,32.41
2018-05-12T04:17:49.530Z,30
2018-05-12T04:23:44.569Z,31.86
2018-05-12T04:29:39.512Z,30.65
2018-05-12T04:35:34.496Z,31.22
2018-05-12T04:41:29.511Z,29.79
2018-05-12T04:47:24.539Z,24.87
2018-05-12T04:53:19.517Z,31.93
2018-05-12T04:59:14.526Z,35.37
2018-05-12T05:05:09.544Z,35.74
2018-05-12T05:11:04.557Z,30.98
2018-05-12T05:16:59.557Z,24.98
2018-05-12T05:22:54.601Z,27.18
2018-05-12T05:28:49.519Z,34.69
2018-05-12T05:34:44.551Z,23.82
2018-05-12T05:40:39.546Z,29.49
2018-05-12T05:46:34.555Z,25.21
2018-05-12T05:52:29.577Z,30.62
2018-05-12T05:58:24.578Z,36.57
2018-05-12T06:04:19.581Z,30.14
2018-05-12T06:10:14.568Z,30.65
2018-05-12T06:16:09.600Z,34.18
2018-05-12T06:22:04.568Z,24.63
2018-05-12T06:27:59.659Z,26.04
2018-05-12T06:33:54.698Z,25.99
2018-05-12T06:39:49.615Z,24.98
2018-05-12T06:45:44.573Z,27.75
2018-05-12T06:51:39.636Z,21.7
2018-05-12T06:57:34.625Z,25.41
2018-05-12T07:03:29.588Z,32.17
2018-05-12T07:09:24.614Z,21.3
2018-05-12T07:15:19.605Z,21.16
2018-05-12T07:21:14.597Z,22.68
2018-05-12T07:27:09.672Z,27.12
2018-05-12T07:33:04.618Z,21.79
2018-05-12T07:38:59.765Z,20.33
2018-05-12T07:44:54.620Z,19.38
2018-05-12T07:50:49.632Z,19.08
2018-05-12T07:56:44.636Z,30.14
2018-05-12T08:02:39.624Z,21.87
2018-05-12T08:08:34.605Z,18.32
2018-05-12T08:14:29.604Z,18.31
2018-05-12T08:20:24.617Z,12.97
2018-05-12T08:26:19.628Z,19.31
2018-05-12T08:32:14.643Z,23.09
2018-05-12T08:38:09.679Z,14.34
2018-05-12T08:44:04.655Z,14.74
2018-05-12T08:49:59.675Z,15.14
2018-05-12T08:55:54.633Z,15.06
2018-05-12T09:01:49.666Z,13.87
2018-05-12T09:07:44.670Z,15.42
2018-05-12T09:13:39.680Z,12.66
2018-05-12T09:19:34.672Z,10.17
2018-05-12T09:25:29.693Z,9.79
2018-05-12T09:31:24.667Z,9.73
2018-05-12T09:37:19.716Z,11.95
2018-05-12T09:43:14.805Z,12.02
2018-05-12T09:49:09.676Z,11.36
2018-05-12T09:55:04.737Z,8.48
2018-05-12T10:00:59.770Z,9.8
2018-05-12T10:06:54.686Z,9.2
2018-05-12T10:12:49.700Z,8.64
2018-05-12T10:18:44.719Z,12.71
2018-05-12T10:24:39.726Z,12.89
2018-05-12T10:30:34.692Z,9.56
2018-05-12T10:36:29.716Z,11.4
2018-05-12T10:42:24.704Z,16.37
2018-05-12T10:48:19.719Z,14.32
2018-05-12T10:54:14.742Z,13.82
2018-05-12T11:00:09.781Z,8.2
2018-05-12T11:06:04.738Z,13.79
2018-05-12T11:11:59.731Z,10.57
2018-05-12T11:17:54.758Z,15.26
2018-05-12T11:23:49.707Z,10.11
2018-05-12T11:29:44.766Z,8.45
2018-05-12T11:35:39.743Z,10.67
2018-05-12T11:41:34.744Z,10.91
2018-05-12T11:47:29.769Z,14.82
2018-05-12T11:53:24.784Z,14.25
2018-05-12T11:59:19.760Z,11.1
2018-05-12T12:05:14.750Z,12.27
2018-05-12T12:11:09.789Z,10.06
2018-05-12T12:17:04.787Z,10.76
2018-05-12T12:22:59.767Z,8.37
2018-05-12T12:28:54.787Z,12.24
2018-05-12T12:34:49.827Z,11.77
2018-05-12T12:40:44.786Z,9.7
2018-05-12T12:46:39.790Z,10.11
2018-05-12T12:52:34.824Z,8.58
2018-05-12T12:58:29.763Z,11.13
2018-05-12T13:04:24.788Z,8.98
2018-05-12T13:10:19.805Z,12.97
2018-05-12T13:16:14.846Z,7.08
2018-05-12T13:22:09.887Z,11.77
2018-05-12T13:28:04.938Z,7.68
2018-05-12T13:33:59.817Z,5.93
2018-05-12T13:39:54.824Z,8.9
2018-05-12T13:45:49.797Z,4.31
2018-05-12T13:51:44.831Z,7.89
2018-05-12T13:57:39.823Z,7
2018-05-12T14:03:34.872Z,10.13
2018-05-12T14:09:29.851Z,8.43
2018-05-12T14:15:24.868Z,5.73
2018-05-12T14:21:19.889Z,7
2018-05-12T14:27:14.842Z,7.63
2018-05-12T14:33:09.845Z,6
2018-05-12T14:39:04.864Z,7.72
2018-05-12T14:44:59.852Z,7.6
2018-05-12T14:50:54.884Z,8.07
2018-05-12T14:56:49.842Z,5.71
2018-05-12T15:02:44.867Z,6.81
2018-05-12T15:08:39.876Z,6.1
2018-05-12T15:14:34.871Z,6.16
2018-05-12T15:20:29.881Z,8.22
2018-05-12T15:26:24.900Z,6.97
2018-05-12T15:32:19.874Z,6.88
2018-05-12T15:38:14.893Z,9.81
2018-05-12T15:44:09.926Z,10.86
2018-05-12T15:50:05.003Z,6.1
2018-05-12T15:55:59.912Z,11.27
2018-05-12T16:01:54.919Z,8.97
2018-05-12T16:07:49.927Z,9.19
2018-05-12T16:13:44.924Z,11.32
2018-05-12T16:19:39.907Z,8.79
2018-05-12T16:25:34.918Z,11.56
2018-05-12T16:31:29.920Z,14.42
2018-05-12T16:37:24.962Z,15.83
2018-05-12T16:43:19.915Z,11.52
2018-05-12T16:49:14.896Z,19.37
2018-05-12T16:55:09.923Z,10.18
2018-05-12T17:01:04.944Z,12.46
2018-05-12T17:06:59.912Z,13.06
2018-05-12T17:12:54.929Z,12.27
2018-05-12T17:18:49.959Z,12.57
2018-05-12T17:24:44.952Z,13.61
2018-05-12T17:30:39.961Z,12.27
2018-05-12T17:36:34.952Z,14.27
2018-05-12T17:42:29.946Z,12.33
2018-05-12T17:48:24.970Z,12.68
2018-05-12T17:54:20.016Z,13.35
2018-05-12T18:00:15.002Z,17.29
2018-05-12T18:06:10.001Z,17.24
2018-05-12T18:12:04.984Z,14.4
2018-05-12T18:18:00.007Z,12.93
2018-05-12T18:23:54.975Z,17.34
2018-05-12T18:29:50.003Z,17.01
2018-05-12T18:35:44.998Z,18.77
2018-05-12T18:41:40.059Z,14.17
2018-05-12T18:47:35.037Z,16.87
2018-05-12T18:53:30.022Z,13.8
2018-05-12T18:59:24.990Z,15
2018-05-12T19:05:20.012Z,16.99
2018-05-12T19:11:15.104Z,13.58
2018-05-12T19:17:10.113Z,13.91
2018-05-12T19:23:05.013Z,14.58
2018-05-12T19:29:00.042Z,14.31
2018-05-12T19:34:55.013Z,21.44
2018-05-12T19:40:50.037Z,13.78
2018-05-12T19:46:45.036Z,16.18
2018-05-12T19:52:40.037Z,20.77
2018-05-12T19:58:35.018Z,20.04
2018-05-12T20:04:30.004Z,17.85
2018-05-12T20:10:25.085Z,16.94
2018-05-12T20:16:20.030Z,14.76
2018-05-12T20:22:15.106Z,18.2
2018-05-12T20:28:10.109Z,16.69
2018-05-12T20:34:05.028Z,15.21
2018-05-12T20:40:00.086Z,20.37
2018-05-12T20:45:55.113Z,20.76
2018-05-12T20:51:50.067Z,18.8
2018-05-12T20:57:45.095Z,18.24
2018-05-12T21:03:40.066Z,14.55
2018-05-12T21:09:35.079Z,16.38
2018-05-12T21:15:30.103Z,18.09
2018-05-12T21:21:25.153Z,24
2018-05-12T21:27:20.103Z,18.49
2018-05-12T21:33:15.103Z,23.86
2018-05-12T21:39:10.091Z,23.17
2018-05-12T21:45:05.109Z,15.59
2018-05-12T21:51:00.088Z,20.84
2018-05-12T21:56:55.131Z,21.36
2018-05-12T22:02:50.096Z,22.59
2018-05-12T22:08:45.111Z,18.93
2018-05-12T22:14:40.118Z,12.68
2018-05-12T22:20:35.123Z,16.13
2018-05-12T22:26:30.119Z,23.49
2018-05-12T22:32:25.116Z,17.36
2018-05-12T22:38:20.092Z,17.13
2018-05-12T22:44:15.177Z,20.22
2018-05-12T22:50:10.100Z,22.28
2018-05-12T22:56:05.165Z,24.02
2018-05-12T23:02:00.143Z,19.56
2018-05-12T23:07:55.153Z,19.14
2018-05-12T23:13:50.134Z,21.82
2018-05-12T23:19:45.166Z,19.39
2018-05-12T23:25:40.147Z,18.14
2018-05-12T23:31:35.163Z,19.49
2018-05-12T23:37:30.165Z,18.11
2018-05-12T23:43:25.164Z,21.4
2018-05-12T23:49:20.159Z,23.4
2018-05-12T23:55:15.164Z,17.06
